Warrenville, Illinois
Current Conditions -  °F | °C
As of 2:52 PM on Sunday 21 Dec 2014 (Local Time) from KDPA Reporting Station
Overcast Overcast  
Wind Chill: 28°   Ceiling: 1900
Heat Index: 37°   Visibility: 7mi
Dew Point: 30°   Wind: 14mph
Humidity: 76%   Direction: 180°S
Pressure: 30.06"   Gusts: NA
Location:  41.82°N, 88.18°W
Report Text: KDPA 212052Z 18012KT 7SM BKN019 OVC035 03/M01 A3006 RMK AO2 SLP188 T00281011 56022
Loading
Personal Weather Stations






























Interactive Weather Map New forecast layout! Learn more

10-Day Weather Forecast

Advertisements
Track Severe Weather on mobile